KCLS/CLS METAR and TAF weather

Enter ICAO airport designator
Station Type Date Time Source
KCLS METAR 2019/08/19 08:35 UTC NOAA

KCLS 190835Z AUTO 23003KT 10SM CLR 14/13 A2994 RMK AO2


Station Type Date Time Source
KCLS Decoded METAR 2019/08/19 08:35 UTC NOAA

Station name not available
Aug 19, 2019 - 04:35 AM EDT / 2019.08.19 0835 UTC
Wind: from the SW (230 degrees) at 3 MPH (3 KT):0
Visibility: 10 mile(s):0
Sky conditions: clear
Temperature: 57 F (14 C)
Dew Point: 55 F (13 C)
Relative Humidity: 93%
Pressure (altimeter): 29.94 in. Hg (1013 hPa)
ob: KCLS 190835Z AUTO 23003KT 10SM CLR 14/13 A2994 RMK AO2
cycle: 8

Station Type Date Time Source
KCLS TAF UTC NOAA

Error!

Example: see airport list